Terminal Aerodrome Forecast
Issued by NWS

Current Version | Previous Version | Graphics & Text | Print | Product List | Glossary On
Versions: 1 2 3 4 5 6 7 8 9 10 11 12 13 14 15 16 17 18
000
FTUS41 KPBZ 090500
TAFMGW
TAF
KMGW 090536Z 0906/1006 22007KT P6SM SCT050
     FM090900 21003KT 4SM BR SCT008 BKN015
     FM091500 23006KT P6SM BKN035=

USA.gov is the U.S. government's official web portal to all federal, state and local government web resources and services.